sensor_id;sensor_type;location;lat;lon;timestamp;P1;durP1;ratioP1;P2;durP2;ratioP2
30571;SDS011;17348;50.948;10.696;2023-03-11T00:02:42;4.23;;;2.73;;
30571;SDS011;17348;50.948;10.696;2023-03-11T00:05:45;6.17;;;2.87;;
30571;SDS011;17348;50.948;10.696;2023-03-11T00:08:48;4.10;;;2.00;;
30571;SDS011;17348;50.948;10.696;2023-03-11T00:11:51;5.20;;;1.97;;
30571;SDS011;17348;50.948;10.696;2023-03-11T00:14:54;7.33;;;3.40;;
30571;SDS011;17348;50.948;10.696;2023-03-11T00:17:59;4.40;;;1.70;;
30571;SDS011;17348;50.948;10.696;2023-03-11T00:21:02;3.40;;;1.90;;
30571;SDS011;17348;50.948;10.696;2023-03-11T00:24:05;2.17;;;1.40;;
30571;SDS011;17348;50.948;10.696;2023-03-11T00:27:07;6.17;;;2.67;;
30571;SDS011;17348;50.948;10.696;2023-03-11T00:30:10;3.83;;;1.63;;
30571;SDS011;17348;50.948;10.696;2023-03-11T00:33:15;3.47;;;1.73;;
30571;SDS011;17348;50.948;10.696;2023-03-11T00:36:19;5.43;;;2.73;;
30571;SDS011;17348;50.948;10.696;2023-03-11T00:39:24;4.53;;;2.10;;
30571;SDS011;17348;50.948;10.696;2023-03-11T00:42:26;4.87;;;2.40;;
30571;SDS011;17348;50.948;10.696;2023-03-11T00:45:29;2.47;;;1.53;;
30571;SDS011;17348;50.948;10.696;2023-03-11T00:48:33;1.50;;;1.00;;
30571;SDS011;17348;50.948;10.696;2023-03-11T00:51:35;4.13;;;2.20;;
30571;SDS011;17348;50.948;10.696;2023-03-11T00:54:37;2.83;;;1.47;;
30571;SDS011;17348;50.948;10.696;2023-03-11T00:57:40;4.63;;;2.47;;
30571;SDS011;17348;50.948;10.696;2023-03-11T01:00:42;5.17;;;2.60;;
30571;SDS011;17348;50.948;10.696;2023-03-11T01:03:46;3.87;;;1.80;;
30571;SDS011;17348;50.948;10.696;2023-03-11T01:06:48;4.67;;;2.17;;
30571;SDS011;17348;50.948;10.696;2023-03-11T01:09:51;4.83;;;2.27;;
30571;SDS011;17348;50.948;10.696;2023-03-11T01:12:53;2.90;;;2.03;;
30571;SDS011;17348;50.948;10.696;2023-03-11T01:15:55;4.63;;;2.60;;
30571;SDS011;17348;50.948;10.696;2023-03-11T01:19:00;3.63;;;2.30;;
30571;SDS011;17348;50.948;10.696;2023-03-11T01:22:02;5.70;;;2.80;;
30571;SDS011;17348;50.948;10.696;2023-03-11T01:25:04;2.03;;;1.20;;
30571;SDS011;17348;50.948;10.696;2023-03-11T01:28:07;3.43;;;1.80;;
30571;SDS011;17348;50.948;10.696;2023-03-11T01:31:10;4.70;;;2.33;;
30571;SDS011;17348;50.948;10.696;2023-03-11T01:34:13;3.77;;;1.70;;
30571;SDS011;17348;50.948;10.696;2023-03-11T01:37:16;5.67;;;2.43;;
30571;SDS011;17348;50.948;10.696;2023-03-11T01:40:21;3.23;;;1.80;;
30571;SDS011;17348;50.948;10.696;2023-03-11T01:43:44;3.23;;;1.90;;
30571;SDS011;17348;50.948;10.696;2023-03-11T01:50:32;4.33;;;2.07;;
30571;SDS011;17348;50.948;10.696;2023-03-11T01:53:37;4.20;;;2.00;;
30571;SDS011;17348;50.948;10.696;2023-03-11T01:56:40;2.53;;;1.47;;
30571;SDS011;17348;50.948;10.696;2023-03-11T01:59:45;2.10;;;1.17;;
30571;SDS011;17348;50.948;10.696;2023-03-11T02:02:51;1.80;;;1.23;;
30571;SDS011;17348;50.948;10.696;2023-03-11T02:05:58;1.63;;;0.83;;
30571;SDS011;17348;50.948;10.696;2023-03-11T02:09:02;5.23;;;1.00;;
30571;SDS011;17348;50.948;10.696;2023-03-11T02:12:05;2.83;;;0.83;;
30571;SDS011;17348;50.948;10.696;2023-03-11T02:15:10;1.80;;;1.07;;
30571;SDS011;17348;50.948;10.696;2023-03-11T02:18:13;1.30;;;1.00;;
30571;SDS011;17348;50.948;10.696;2023-03-11T02:21:21;1.97;;;0.60;;
30571;SDS011;17348;50.948;10.696;2023-03-11T02:24:27;1.00;;;0.67;;
30571;SDS011;17348;50.948;10.696;2023-03-11T02:27:37;2.55;;;1.15;;
30571;SDS011;17348;50.948;10.696;2023-03-11T02:30:44;0.80;;;0.70;;
30571;SDS011;17348;50.948;10.696;2023-03-11T02:33:48;35.03;;;2.27;;
30571;SDS011;17348;50.948;10.696;2023-03-11T02:36:53;2.57;;;1.03;;
30571;SDS011;17348;50.948;10.696;2023-03-11T02:40:13;1.80;;;1.03;;
30571;SDS011;17348;50.948;10.696;2023-03-11T02:43:45;2.60;;;1.30;;
30571;SDS011;17348;50.948;10.696;2023-03-11T02:46:48;1.90;;;1.07;;
30571;SDS011;17348;50.948;10.696;2023-03-11T02:49:52;1.20;;;0.97;;
30571;SDS011;17348;50.948;10.696;2023-03-11T02:52:56;2.97;;;0.80;;
30571;SDS011;17348;50.948;10.696;2023-03-11T02:55:59;3.73;;;1.17;;
30571;SDS011;17348;50.948;10.696;2023-03-11T02:59:02;2.73;;;1.23;;
30571;SDS011;17348;50.948;10.696;2023-03-11T03:02:05;2.80;;;1.60;;
30571;SDS011;17348;50.948;10.696;2023-03-11T03:05:07;1.47;;;1.30;;
30571;SDS011;17348;50.948;10.696;2023-03-11T03:08:11;1.30;;;1.20;;
30571;SDS011;17348;50.948;10.696;2023-03-11T03:11:13;2.23;;;0.53;;
30571;SDS011;17348;50.948;10.696;2023-03-11T03:14:17;4.87;;;1.53;;
30571;SDS011;17348;50.948;10.696;2023-03-11T03:17:19;3.07;;;1.37;;
30571;SDS011;17348;50.948;10.696;2023-03-11T03:20:21;1.77;;;0.93;;
30571;SDS011;17348;50.948;10.696;2023-03-11T03:23:26;3.07;;;1.37;;
30571;SDS011;17348;50.948;10.696;2023-03-11T03:26:28;1.57;;;1.03;;
30571;SDS011;17348;50.948;10.696;2023-03-11T03:29:32;2.60;;;1.33;;
30571;SDS011;17348;50.948;10.696;2023-03-11T03:32:34;3.57;;;1.50;;
30571;SDS011;17348;50.948;10.696;2023-03-11T03:35:39;2.80;;;1.33;;
30571;SDS011;17348;50.948;10.696;2023-03-11T03:38:42;3.60;;;1.80;;
30571;SDS011;17348;50.948;10.696;2023-03-11T03:41:44;3.13;;;1.40;;
30571;SDS011;17348;50.948;10.696;2023-03-11T03:44:48;1.53;;;0.90;;
30571;SDS011;17348;50.948;10.696;2023-03-11T03:47:50;1.53;;;1.20;;
30571;SDS011;17348;50.948;10.696;2023-03-11T03:50:52;4.13;;;2.23;;
30571;SDS011;17348;50.948;10.696;2023-03-11T03:53:55;7.53;;;1.93;;
30571;SDS011;17348;50.948;10.696;2023-03-11T03:56:57;1.80;;;1.20;;
30571;SDS011;17348;50.948;10.696;2023-03-11T04:00:01;2.03;;;1.33;;
30571;SDS011;17348;50.948;10.696;2023-03-11T04:03:04;3.47;;;1.17;;
30571;SDS011;17348;50.948;10.696;2023-03-11T04:06:08;0.83;;;0.70;;
30571;SDS011;17348;50.948;10.696;2023-03-11T04:09:14;2.67;;;0.87;;
30571;SDS011;17348;50.948;10.696;2023-03-11T04:12:16;2.27;;;1.50;;
30571;SDS011;17348;50.948;10.696;2023-03-11T04:15:20;0.43;;;0.43;;
30571;SDS011;17348;50.948;10.696;2023-03-11T04:18:22;2.40;;;1.43;;
30571;SDS011;17348;50.948;10.696;2023-03-11T04:21:25;0.70;;;0.60;;
30571;SDS011;17348;50.948;10.696;2023-03-11T04:24:27;2.80;;;0.73;;
30571;SDS011;17348;50.948;10.696;2023-03-11T04:27:29;0.73;;;0.70;;
30571;SDS011;17348;50.948;10.696;2023-03-11T04:30:33;7.80;;;1.47;;
30571;SDS011;17348;50.948;10.696;2023-03-11T04:33:35;8.03;;;1.40;;
30571;SDS011;17348;50.948;10.696;2023-03-11T04:36:38;2.67;;;1.67;;
30571;SDS011;17348;50.948;10.696;2023-03-11T04:39:40;5.80;;;1.20;;
30571;SDS011;17348;50.948;10.696;2023-03-11T04:42:42;4.93;;;1.10;;
30571;SDS011;17348;50.948;10.696;2023-03-11T04:45:48;6.53;;;1.53;;
30571;SDS011;17348;50.948;10.696;2023-03-11T04:48:51;4.57;;;1.07;;
30571;SDS011;17348;50.948;10.696;2023-03-11T04:51:53;2.83;;;1.27;;
30571;SDS011;17348;50.948;10.696;2023-03-11T04:54:55;1.70;;;0.90;;
30571;SDS011;17348;50.948;10.696;2023-03-11T04:57:58;6.20;;;1.17;;
30571;SDS011;17348;50.948;10.696;2023-03-11T05:01:01;5.70;;;1.63;;
30571;SDS011;17348;50.948;10.696;2023-03-11T05:04:04;5.47;;;1.30;;
30571;SDS011;17348;50.948;10.696;2023-03-11T05:07:06;4.43;;;1.03;;
30571;SDS011;17348;50.948;10.696;2023-03-11T05:10:09;4.20;;;2.03;;
30571;SDS011;17348;50.948;10.696;2023-03-11T05:13:12;8.90;;;2.73;;
30571;SDS011;17348;50.948;10.696;2023-03-11T05:16:16;7.20;;;1.40;;
30571;SDS011;17348;50.948;10.696;2023-03-11T05:19:18;8.67;;;1.93;;
30571;SDS011;17348;50.948;10.696;2023-03-11T05:22:34;1.47;;;0.90;;
30571;SDS011;17348;50.948;10.696;2023-03-11T05:25:37;5.70;;;1.47;;
30571;SDS011;17348;50.948;10.696;2023-03-11T05:28:39;3.83;;;1.87;;
30571;SDS011;17348;50.948;10.696;2023-03-11T05:31:43;3.90;;;1.40;;
30571;SDS011;17348;50.948;10.696;2023-03-11T05:34:46;2.57;;;1.40;;
30571;SDS011;17348;50.948;10.696;2023-03-11T05:37:49;3.53;;;1.60;;
30571;SDS011;17348;50.948;10.696;2023-03-11T05:40:53;2.80;;;1.30;;
30571;SDS011;17348;50.948;10.696;2023-03-11T05:43:55;2.00;;;1.07;;
30571;SDS011;17348;50.948;10.696;2023-03-11T05:46:59;9.50;;;2.50;;
30571;SDS011;17348;50.948;10.696;2023-03-11T05:50:02;5.17;;;2.27;;
30571;SDS011;17348;50.948;10.696;2023-03-11T05:53:05;5.53;;;1.90;;
30571;SDS011;17348;50.948;10.696;2023-03-11T05:56:08;9.87;;;2.50;;
30571;SDS011;17348;50.948;10.696;2023-03-11T05:59:10;10.13;;;2.10;;
30571;SDS011;17348;50.948;10.696;2023-03-11T06:02:15;8.77;;;1.87;;
30571;SDS011;17348;50.948;10.696;2023-03-11T06:05:18;9.00;;;2.57;;
30571;SDS011;17348;50.948;10.696;2023-03-11T06:08:20;4.77;;;2.20;;
30571;SDS011;17348;50.948;10.696;2023-03-11T06:11:23;7.73;;;3.03;;
30571;SDS011;17348;50.948;10.696;2023-03-11T06:14:26;9.13;;;2.30;;
30571;SDS011;17348;50.948;10.696;2023-03-11T06:17:32;8.37;;;2.80;;
30571;SDS011;17348;50.948;10.696;2023-03-11T06:20:35;5.17;;;2.10;;
30571;SDS011;17348;50.948;10.696;2023-03-11T06:23:38;7.63;;;2.47;;
30571;SDS011;17348;50.948;10.696;2023-03-11T06:26:40;7.07;;;2.80;;
30571;SDS011;17348;50.948;10.696;2023-03-11T06:29:45;8.00;;;2.23;;
30571;SDS011;17348;50.948;10.696;2023-03-11T06:32:49;3.87;;;2.00;;
30571;SDS011;17348;50.948;10.696;2023-03-11T06:35:55;7.10;;;1.80;;
30571;SDS011;17348;50.948;10.696;2023-03-11T06:38:58;4.27;;;2.33;;
30571;SDS011;17348;50.948;10.696;2023-03-11T06:42:00;3.70;;;1.63;;
30571;SDS011;17348;50.948;10.696;2023-03-11T06:45:03;6.03;;;1.53;;
30571;SDS011;17348;50.948;10.696;2023-03-11T06:48:08;4.77;;;2.27;;
30571;SDS011;17348;50.948;10.696;2023-03-11T06:51:10;2.47;;;1.67;;
30571;SDS011;17348;50.948;10.696;2023-03-11T06:54:13;5.23;;;1.37;;
30571;SDS011;17348;50.948;10.696;2023-03-11T06:57:15;4.87;;;1.67;;
30571;SDS011;17348;50.948;10.696;2023-03-11T07:00:18;2.73;;;1.63;;
30571;SDS011;17348;50.948;10.696;2023-03-11T07:03:22;6.43;;;2.47;;
30571;SDS011;17348;50.948;10.696;2023-03-11T07:06:25;3.27;;;1.70;;
30571;SDS011;17348;50.948;10.696;2023-03-11T07:09:29;4.60;;;2.27;;
30571;SDS011;17348;50.948;10.696;2023-03-11T07:12:31;7.37;;;2.73;;
30571;SDS011;17348;50.948;10.696;2023-03-11T07:15:33;7.53;;;1.80;;
30571;SDS011;17348;50.948;10.696;2023-03-11T07:18:37;7.73;;;1.97;;
30571;SDS011;17348;50.948;10.696;2023-03-11T07:21:40;11.83;;;2.37;;
30571;SDS011;17348;50.948;10.696;2023-03-11T07:24:43;10.03;;;2.23;;
30571;SDS011;17348;50.948;10.696;2023-03-11T07:27:46;7.60;;;2.77;;
30571;SDS011;17348;50.948;10.696;2023-03-11T07:30:50;5.53;;;2.00;;
30571;SDS011;17348;50.948;10.696;2023-03-11T07:33:55;12.63;;;3.00;;
30571;SDS011;17348;50.948;10.696;2023-03-11T07:36:58;12.03;;;2.53;;
30571;SDS011;17348;50.948;10.696;2023-03-11T07:40:00;6.17;;;1.70;;
30571;SDS011;17348;50.948;10.696;2023-03-11T07:43:03;6.30;;;2.57;;
30571;SDS011;17348;50.948;10.696;2023-03-11T07:46:08;6.40;;;1.60;;
30571;SDS011;17348;50.948;10.696;2023-03-11T07:49:13;4.80;;;2.43;;
30571;SDS011;17348;50.948;10.696;2023-03-11T07:52:16;5.77;;;2.27;;
30571;SDS011;17348;50.948;10.696;2023-03-11T07:55:18;3.93;;;1.50;;
30571;SDS011;17348;50.948;10.696;2023-03-11T07:58:21;3.30;;;1.80;;
30571;SDS011;17348;50.948;10.696;2023-03-11T08:01:24;3.40;;;1.50;;
30571;SDS011;17348;50.948;10.696;2023-03-11T08:04:31;3.33;;;1.13;;
30571;SDS011;17348;50.948;10.696;2023-03-11T08:07:33;5.40;;;1.63;;
30571;SDS011;17348;50.948;10.696;2023-03-11T08:10:36;4.30;;;1.27;;
30571;SDS011;17348;50.948;10.696;2023-03-11T08:13:38;5.97;;;1.90;;
30571;SDS011;17348;50.948;10.696;2023-03-11T08:16:41;3.73;;;1.33;;
30571;SDS011;17348;50.948;10.696;2023-03-11T08:19:45;3.77;;;1.60;;
30571;SDS011;17348;50.948;10.696;2023-03-11T08:22:49;2.13;;;1.40;;
30571;SDS011;17348;50.948;10.696;2023-03-11T08:25:52;4.43;;;1.50;;
30571;SDS011;17348;50.948;10.696;2023-03-11T08:28:54;3.30;;;1.80;;
30571;SDS011;17348;50.948;10.696;2023-03-11T08:31:57;3.73;;;1.60;;
30571;SDS011;17348;50.948;10.696;2023-03-11T08:35:01;5.90;;;1.70;;
30571;SDS011;17348;50.948;10.696;2023-03-11T08:38:04;14.40;;;2.00;;
30571;SDS011;17348;50.948;10.696;2023-03-11T08:41:06;5.83;;;1.53;;
30571;SDS011;17348;50.948;10.696;2023-03-11T08:44:09;3.00;;;1.60;;
30571;SDS011;17348;50.948;10.696;2023-03-11T08:47:11;4.53;;;1.40;;
30571;SDS011;17348;50.948;10.696;2023-03-11T08:50:16;7.63;;;1.93;;
30571;SDS011;17348;50.948;10.696;2023-03-11T08:53:20;4.97;;;1.10;;
30571;SDS011;17348;50.948;10.696;2023-03-11T08:56:23;4.27;;;1.50;;
30571;SDS011;17348;50.948;10.696;2023-03-11T08:59:25;8.87;;;1.47;;
30571;SDS011;17348;50.948;10.696;2023-03-11T09:02:28;7.60;;;1.73;;
30571;SDS011;17348;50.948;10.696;2023-03-11T09:05:31;6.77;;;1.77;;
30571;SDS011;17348;50.948;10.696;2023-03-11T09:08:34;4.23;;;1.40;;
30571;SDS011;17348;50.948;10.696;2023-03-11T09:11:37;2.57;;;1.03;;
30571;SDS011;17348;50.948;10.696;2023-03-11T09:14:40;2.10;;;1.07;;
30571;SDS011;17348;50.948;10.696;2023-03-11T09:17:42;1.80;;;1.13;;
30571;SDS011;17348;50.948;10.696;2023-03-11T09:20:46;11.50;;;0.90;;
30571;SDS011;17348;50.948;10.696;2023-03-11T09:23:49;1.97;;;0.80;;
30571;SDS011;17348;50.948;10.696;2023-03-11T09:26:51;1.87;;;0.80;;
30571;SDS011;17348;50.948;10.696;2023-03-11T09:29:54;12.10;;;1.00;;
30571;SDS011;17348;50.948;10.696;2023-03-11T09:32:56;8.70;;;1.43;;
30571;SDS011;17348;50.948;10.696;2023-03-11T09:36:00;4.87;;;0.87;;
30571;SDS011;17348;50.948;10.696;2023-03-11T09:39:03;5.80;;;1.40;;
30571;SDS011;17348;50.948;10.696;2023-03-11T09:42:09;8.20;;;1.10;;
30571;SDS011;17348;50.948;10.696;2023-03-11T09:45:20;4.17;;;0.93;;
30571;SDS011;17348;50.948;10.696;2023-03-11T09:48:26;2.90;;;1.13;;
30571;SDS011;17348;50.948;10.696;2023-03-11T09:51:37;6.27;;;1.53;;
30571;SDS011;17348;50.948;10.696;2023-03-11T09:54:44;5.90;;;0.97;;
30571;SDS011;17348;50.948;10.696;2023-03-11T09:57:49;3.73;;;1.20;;
30571;SDS011;17348;50.948;10.696;2023-03-11T10:00:53;4.93;;;0.90;;
30571;SDS011;17348;50.948;10.696;2023-03-11T10:03:59;6.53;;;0.87;;
30571;SDS011;17348;50.948;10.696;2023-03-11T10:07:10;3.43;;;1.00;;
30571;SDS011;17348;50.948;10.696;2023-03-11T10:10:18;9.27;;;0.70;;
30571;SDS011;17348;50.948;10.696;2023-03-11T10:13:23;8.27;;;2.43;;
30571;SDS011;17348;50.948;10.696;2023-03-11T10:16:32;4.47;;;0.90;;
30571;SDS011;17348;50.948;10.696;2023-03-11T10:19:41;2.07;;;1.13;;
30571;SDS011;17348;50.948;10.696;2023-03-11T10:22:52;8.37;;;1.57;;
30571;SDS011;17348;50.948;10.696;2023-03-11T10:26:05;5.03;;;1.40;;
30571;SDS011;17348;50.948;10.696;2023-03-11T10:29:15;6.40;;;1.05;;
30571;SDS011;17348;50.948;10.696;2023-03-11T10:32:21;1.70;;;0.97;;
30571;SDS011;17348;50.948;10.696;2023-03-11T10:35:32;2.07;;;1.07;;
30571;SDS011;17348;50.948;10.696;2023-03-11T10:38:40;5.95;;;1.00;;
30571;SDS011;17348;50.948;10.696;2023-03-11T10:41:48;4.20;;;0.90;;
30571;SDS011;17348;50.948;10.696;2023-03-11T10:44:54;2.30;;;1.07;;
30571;SDS011;17348;50.948;10.696;2023-03-11T10:47:57;6.47;;;1.20;;
30571;SDS011;17348;50.948;10.696;2023-03-11T10:51:01;4.13;;;1.37;;
30571;SDS011;17348;50.948;10.696;2023-03-11T10:54:06;4.03;;;1.50;;
30571;SDS011;17348;50.948;10.696;2023-03-11T10:57:18;5.07;;;1.83;;
30571;SDS011;17348;50.948;10.696;2023-03-11T11:00:27;10.13;;;1.23;;
30571;SDS011;17348;50.948;10.696;2023-03-11T11:03:31;6.13;;;1.70;;
30571;SDS011;17348;50.948;10.696;2023-03-11T11:06:34;5.57;;;1.30;;
30571;SDS011;17348;50.948;10.696;2023-03-11T11:09:39;5.77;;;1.27;;
30571;SDS011;17348;50.948;10.696;2023-03-11T11:12:51;4.07;;;1.40;;
30571;SDS011;17348;50.948;10.696;2023-03-11T11:15:56;7.30;;;1.73;;
30571;SDS011;17348;50.948;10.696;2023-03-11T11:19:01;4.10;;;1.40;;
30571;SDS011;17348;50.948;10.696;2023-03-11T11:22:05;8.80;;;1.33;;
30571;SDS011;17348;50.948;10.696;2023-03-11T11:25:25;2.40;;;1.40;;
30571;SDS011;17348;50.948;10.696;2023-03-11T11:28:30;4.33;;;2.17;;
30571;SDS011;17348;50.948;10.696;2023-03-11T11:31:34;9.07;;;1.07;;
30571;SDS011;17348;50.948;10.696;2023-03-11T11:34:37;5.00;;;1.30;;
30571;SDS011;17348;50.948;10.696;2023-03-11T11:37:40;4.90;;;1.37;;
30571;SDS011;17348;50.948;10.696;2023-03-11T11:40:46;10.77;;;1.57;;
30571;SDS011;17348;50.948;10.696;2023-03-11T11:43:49;4.07;;;1.47;;
30571;SDS011;17348;50.948;10.696;2023-03-11T11:46:54;3.57;;;1.33;;
30571;SDS011;17348;50.948;10.696;2023-03-11T11:49:59;1.90;;;0.93;;
30571;SDS011;17348;50.948;10.696;2023-03-11T11:53:08;3.67;;;1.53;;
30571;SDS011;17348;50.948;10.696;2023-03-11T11:56:23;3.27;;;1.20;;
30571;SDS011;17348;50.948;10.696;2023-03-11T11:59:26;5.47;;;1.17;;
30571;SDS011;17348;50.948;10.696;2023-03-11T12:02:36;7.00;;;1.80;;
30571;SDS011;17348;50.948;10.696;2023-03-11T12:05:52;6.27;;;1.10;;
30571;SDS011;17348;50.948;10.696;2023-03-11T12:09:02;6.30;;;1.50;;
30571;SDS011;17348;50.948;10.696;2023-03-11T12:12:18;7.07;;;1.30;;
30571;SDS011;17348;50.948;10.696;2023-03-11T12:15:26;2.60;;;1.60;;
30571;SDS011;17348;50.948;10.696;2023-03-11T12:18:32;3.07;;;1.30;;
30571;SDS011;17348;50.948;10.696;2023-03-11T12:21:47;4.33;;;1.03;;
30571;SDS011;17348;50.948;10.696;2023-03-11T12:25:12;7.13;;;1.70;;
30571;SDS011;17348;50.948;10.696;2023-03-11T12:28:34;4.77;;;1.13;;
30571;SDS011;17348;50.948;10.696;2023-03-11T12:31:41;7.13;;;1.40;;
30571;SDS011;17348;50.948;10.696;2023-03-11T12:34:44;5.03;;;2.03;;
30571;SDS011;17348;50.948;10.696;2023-03-11T12:37:53;6.47;;;1.43;;
30571;SDS011;17348;50.948;10.696;2023-03-11T12:40:59;3.78;;;1.48;;
30571;SDS011;17348;50.948;10.696;2023-03-11T12:44:23;5.90;;;1.53;;
30571;SDS011;17348;50.948;10.696;2023-03-11T12:50:36;15.57;;;1.63;;
30571;SDS011;17348;50.948;10.696;2023-03-11T12:53:41;8.13;;;1.37;;
30571;SDS011;17348;50.948;10.696;2023-03-11T12:56:47;2.60;;;1.10;;
30571;SDS011;17348;50.948;10.696;2023-03-11T13:00:16;3.23;;;1.33;;
30571;SDS011;17348;50.948;10.696;2023-03-11T13:03:43;4.33;;;1.10;;
30571;SDS011;17348;50.948;10.696;2023-03-11T13:10:43;3.43;;;1.30;;
30571;SDS011;17348;50.948;10.696;2023-03-11T13:13:46;4.63;;;1.20;;
30571;SDS011;17348;50.948;10.696;2023-03-11T13:16:50;6.03;;;1.80;;
30571;SDS011;17348;50.948;10.696;2023-03-11T13:19:53;8.57;;;1.97;;
30571;SDS011;17348;50.948;10.696;2023-03-11T13:23:07;5.47;;;2.20;;
30571;SDS011;17348;50.948;10.696;2023-03-11T13:26:23;3.30;;;1.17;;
30571;SDS011;17348;50.948;10.696;2023-03-11T13:29:44;11.23;;;1.60;;
30571;SDS011;17348;50.948;10.696;2023-03-11T13:33:00;4.17;;;0.90;;
30571;SDS011;17348;50.948;10.696;2023-03-11T13:36:20;5.67;;;1.20;;
30571;SDS011;17348;50.948;10.696;2023-03-11T13:39:38;4.80;;;1.00;;
30571;SDS011;17348;50.948;10.696;2023-03-11T13:42:53;5.87;;;1.50;;
30571;SDS011;17348;50.948;10.696;2023-03-11T13:45:59;4.23;;;1.17;;
30571;SDS011;17348;50.948;10.696;2023-03-11T13:49:07;3.70;;;1.00;;
30571;SDS011;17348;50.948;10.696;2023-03-11T13:52:23;5.83;;;1.40;;
30571;SDS011;17348;50.948;10.696;2023-03-11T13:55:29;5.07;;;1.00;;
30571;SDS011;17348;50.948;10.696;2023-03-11T13:58:35;2.33;;;0.93;;
30571;SDS011;17348;50.948;10.696;2023-03-11T14:01:38;4.77;;;0.90;;
30571;SDS011;17348;50.948;10.696;2023-03-11T14:04:43;3.37;;;1.20;;
30571;SDS011;17348;50.948;10.696;2023-03-11T14:07:50;2.70;;;0.90;;
30571;SDS011;17348;50.948;10.696;2023-03-11T14:10:53;1.70;;;1.03;;
30571;SDS011;17348;50.948;10.696;2023-03-11T14:13:56;2.73;;;1.10;;
30571;SDS011;17348;50.948;10.696;2023-03-11T14:16:59;8.23;;;0.93;;
30571;SDS011;17348;50.948;10.696;2023-03-11T14:20:06;4.33;;;1.60;;
30571;SDS011;17348;50.948;10.696;2023-03-11T14:26:18;7.27;;;1.57;;
30571;SDS011;17348;50.948;10.696;2023-03-11T14:29:24;11.13;;;1.50;;
30571;SDS011;17348;50.948;10.696;2023-03-11T14:32:32;2.43;;;0.83;;
30571;SDS011;17348;50.948;10.696;2023-03-11T14:35:36;3.10;;;0.93;;
30571;SDS011;17348;50.948;10.696;2023-03-11T14:38:41;11.80;;;1.30;;
30571;SDS011;17348;50.948;10.696;2023-03-11T14:41:44;3.40;;;1.40;;
30571;SDS011;17348;50.948;10.696;2023-03-11T14:44:47;8.03;;;1.60;;
30571;SDS011;17348;50.948;10.696;2023-03-11T14:47:54;9.50;;;1.33;;
30571;SDS011;17348;50.948;10.696;2023-03-11T14:51:03;6.87;;;2.17;;
30571;SDS011;17348;50.948;10.696;2023-03-11T14:54:12;4.50;;;1.90;;
30571;SDS011;17348;50.948;10.696;2023-03-11T14:57:20;6.13;;;2.20;;
30571;SDS011;17348;50.948;10.696;2023-03-11T15:00:27;2.87;;;1.37;;
30571;SDS011;17348;50.948;10.696;2023-03-11T15:03:31;6.97;;;1.37;;
30571;SDS011;17348;50.948;10.696;2023-03-11T15:06:38;4.80;;;1.40;;
30571;SDS011;17348;50.948;10.696;2023-03-11T15:09:42;12.07;;;1.87;;
30571;SDS011;17348;50.948;10.696;2023-03-11T15:12:45;4.40;;;1.63;;
30571;SDS011;17348;50.948;10.696;2023-03-11T15:15:54;2.70;;;1.03;;
30571;SDS011;17348;50.948;10.696;2023-03-11T15:19:00;2.10;;;1.27;;
30571;SDS011;17348;50.948;10.696;2023-03-11T15:22:23;8.30;;;1.60;;
30571;SDS011;17348;50.948;10.696;2023-03-11T15:25:29;4.03;;;1.30;;
30571;SDS011;17348;50.948;10.696;2023-03-11T15:28:34;3.50;;;1.20;;
30571;SDS011;17348;50.948;10.696;2023-03-11T15:31:40;14.33;;;1.47;;
30571;SDS011;17348;50.948;10.696;2023-03-11T15:34:44;6.77;;;1.00;;
30571;SDS011;17348;50.948;10.696;2023-03-11T15:37:49;5.47;;;1.33;;
30571;SDS011;17348;50.948;10.696;2023-03-11T15:40:53;8.10;;;2.40;;
30571;SDS011;17348;50.948;10.696;2023-03-11T15:43:57;11.80;;;3.53;;
30571;SDS011;17348;50.948;10.696;2023-03-11T15:47:02;13.30;;;3.43;;
30571;SDS011;17348;50.948;10.696;2023-03-11T15:50:12;45.13;;;14.03;;
30571;SDS011;17348;50.948;10.696;2023-03-11T15:53:26;81.93;;;23.47;;
30571;SDS011;17348;50.948;10.696;2023-03-11T15:56:29;54.70;;;16.53;;
30571;SDS011;17348;50.948;10.696;2023-03-11T15:59:32;13.23;;;5.40;;
30571;SDS011;17348;50.948;10.696;2023-03-11T16:02:36;11.70;;;3.57;;
30571;SDS011;17348;50.948;10.696;2023-03-11T16:05:38;7.87;;;2.77;;
30571;SDS011;17348;50.948;10.696;2023-03-11T16:08:42;12.57;;;3.03;;
30571;SDS011;17348;50.948;10.696;2023-03-11T16:11:44;5.00;;;2.17;;
30571;SDS011;17348;50.948;10.696;2023-03-11T16:14:47;6.37;;;1.10;;
30571;SDS011;17348;50.948;10.696;2023-03-11T16:17:51;8.57;;;1.10;;
30571;SDS011;17348;50.948;10.696;2023-03-11T16:20:54;3.17;;;0.73;;
30571;SDS011;17348;50.948;10.696;2023-03-11T16:23:58;3.57;;;1.00;;
30571;SDS011;17348;50.948;10.696;2023-03-11T16:27:01;10.43;;;2.83;;
30571;SDS011;17348;50.948;10.696;2023-03-11T16:30:03;21.80;;;7.87;;
30571;SDS011;17348;50.948;10.696;2023-03-11T16:33:06;11.17;;;5.10;;
30571;SDS011;17348;50.948;10.696;2023-03-11T16:36:09;19.67;;;6.40;;
30571;SDS011;17348;50.948;10.696;2023-03-11T16:39:13;9.77;;;3.30;;
30571;SDS011;17348;50.948;10.696;2023-03-11T16:42:19;17.30;;;5.60;;
30571;SDS011;17348;50.948;10.696;2023-03-11T16:45:23;5.03;;;2.63;;
30571;SDS011;17348;50.948;10.696;2023-03-11T16:48:26;10.43;;;3.60;;
30571;SDS011;17348;50.948;10.696;2023-03-11T16:51:28;18.17;;;5.10;;
30571;SDS011;17348;50.948;10.696;2023-03-11T16:54:32;22.27;;;7.53;;
30571;SDS011;17348;50.948;10.696;2023-03-11T16:57:35;18.47;;;5.57;;
30571;SDS011;17348;50.948;10.696;2023-03-11T17:00:39;26.40;;;7.00;;
30571;SDS011;17348;50.948;10.696;2023-03-11T17:03:41;28.87;;;8.37;;
30571;SDS011;17348;50.948;10.696;2023-03-11T17:06:47;35.57;;;11.17;;
30571;SDS011;17348;50.948;10.696;2023-03-11T17:09:50;29.27;;;8.23;;
30571;SDS011;17348;50.948;10.696;2023-03-11T17:12:53;30.83;;;8.90;;
30571;SDS011;17348;50.948;10.696;2023-03-11T17:15:56;32.47;;;9.57;;
30571;SDS011;17348;50.948;10.696;2023-03-11T17:18:59;26.67;;;8.93;;
30571;SDS011;17348;50.948;10.696;2023-03-11T17:22:02;19.00;;;4.90;;
30571;SDS011;17348;50.948;10.696;2023-03-11T17:25:07;12.20;;;3.87;;
30571;SDS011;17348;50.948;10.696;2023-03-11T17:28:09;14.30;;;4.13;;
30571;SDS011;17348;50.948;10.696;2023-03-11T17:31:12;8.13;;;3.07;;
30571;SDS011;17348;50.948;10.696;2023-03-11T17:34:15;3.40;;;2.07;;
30571;SDS011;17348;50.948;10.696;2023-03-11T17:37:18;53.43;;;18.53;;
30571;SDS011;17348;50.948;10.696;2023-03-11T17:40:21;45.97;;;15.83;;
30571;SDS011;17348;50.948;10.696;2023-03-11T17:43:26;56.87;;;18.93;;
30571;SDS011;17348;50.948;10.696;2023-03-11T17:46:28;46.83;;;19.60;;
30571;SDS011;17348;50.948;10.696;2023-03-11T17:49:30;21.33;;;8.37;;
30571;SDS011;17348;50.948;10.696;2023-03-11T17:52:34;13.77;;;4.67;;
30571;SDS011;17348;50.948;10.696;2023-03-11T17:55:38;7.27;;;3.00;;
30571;SDS011;17348;50.948;10.696;2023-03-11T17:58:41;12.10;;;3.27;;
30571;SDS011;17348;50.948;10.696;2023-03-11T18:01:44;9.17;;;2.43;;
30571;SDS011;17348;50.948;10.696;2023-03-11T18:04:49;8.80;;;3.20;;
30571;SDS011;17348;50.948;10.696;2023-03-11T18:07:53;9.50;;;3.53;;
30571;SDS011;17348;50.948;10.696;2023-03-11T18:10:59;28.13;;;8.10;;
30571;SDS011;17348;50.948;10.696;2023-03-11T18:14:02;28.70;;;8.27;;
30571;SDS011;17348;50.948;10.696;2023-03-11T18:17:06;14.73;;;4.30;;
30571;SDS011;17348;50.948;10.696;2023-03-11T18:20:09;16.67;;;6.87;;
30571;SDS011;17348;50.948;10.696;2023-03-11T18:23:13;29.93;;;9.97;;
30571;SDS011;17348;50.948;10.696;2023-03-11T18:26:16;32.37;;;10.17;;
30571;SDS011;17348;50.948;10.696;2023-03-11T18:29:19;21.00;;;8.13;;